Wall, Texas
Current Conditions -  °F | °C
As of 11:51 PM on Wednesday 22 Oct 2014 (Local Time) from KSJT Reporting Station
Broken Clouds Broken Clouds  
Wind Chill: 61°   Ceiling: 7000
Heat Index: 61°   Visibility: 10mi
Dew Point: 56°   Wind: 6mph
Humidity: 83%   Direction: 240°WSW
Pressure: 30.13"   Gusts: NA
Location:  31.37°N, 100.31°W
Report Text: KSJT 230451Z AUTO 24005KT 10SM SCT042 BKN070 16/13 A3013 RMK AO2 SLP192 T01610133
Loading
Personal Weather Stations






























Interactive Weather Map
Tropical Storm Tracking
New forecast layout! Learn more

10-Day Weather Forecast

Advertisements
Track Severe Weather on mobile